Time,TemperatureF,DewpointF,PressureIn,WindDirection,WindDirectionDegrees,WindSpeedMPH,WindSpeedGustMPH,Humidity,HourlyPrecipIn,Conditions,Clouds,dailyrainin,SoftwareType,DateUTC
2013-06-23 00:05:00,56.8,41.0,29.78,SE,146,1.0,3.0,56,0.00,,,0.00,weatherlink.com 1.10,2013-06-23 07:05:00,
2013-06-23 00:20:00,57.4,41.0,29.77,SE,143,1.0,3.0,54,0.00,,,0.00,weatherlink.com 1.10,2013-06-23 07:20:00,
2013-06-23 00:35:00,57.4,41.0,29.77,SSE,148,2.0,3.0,54,0.00,,,0.00,weatherlink.com 1.10,2013-06-23 07:35:00,
2013-06-23 00:50:00,57.4,41.0,29.77,SSE,164,1.0,2.0,54,0.00,,,0.00,weatherlink.com 1.10,2013-06-23 07:50:00,
2013-06-23 01:05:00,57.2,41.0,29.76,SE,143,0.0,1.0,55,0.00,,,0.00,weatherlink.com 1.10,2013-06-23 08:05:00,
2013-06-23 01:20:00,57.0,41.0,29.76,SE,134,0.0,1.0,56,0.00,,,0.00,weatherlink.com 1.10,2013-06-23 08:20:00,
2013-06-23 01:36:00,56.8,41.0,29.75,SE,134,0.0,1.0,56,0.00,,,0.00,weatherlink.com 1.10,2013-06-23 08:36:00,
2013-06-23 01:51:00,57.1,40.0,29.74,SE,134,0.0,0.0,54,0.00,,,0.00,weatherlink.com 1.10,2013-06-23 08:51:00,
2013-06-23 02:06:00,57.1,40.0,29.74,SE,134,0.0,0.0,54,0.00,,,0.00,weatherlink.com 1.10,2013-06-23 09:06:00,
2013-06-23 02:21:00,57.1,40.0,29.73,SE,134,0.0,0.0,54,0.00,,,0.00,weatherlink.com 1.10,2013-06-23 09:21:00,
2013-06-23 02:36:00,56.7,40.0,29.73,SE,134,0.0,0.0,55,0.00,,,0.00,weatherlink.com 1.10,2013-06-23 09:36:00,
2013-06-23 02:51:00,57.3,41.0,29.72,SE,134,0.0,0.0,54,0.00,,,0.00,weatherlink.com 1.10,2013-06-23 09:51:00,
2013-06-23 03:06:00,56.9,40.0,29.72,SE,134,0.0,1.0,54,0.00,,,0.00,weatherlink.com 1.10,2013-06-23 10:06:00,
2013-06-23 03:21:00,56.8,41.0,29.71,SE,129,0.0,1.0,57,0.00,,,0.00,weatherlink.com 1.10,2013-06-23 10:21:00,
2013-06-23 03:36:00,56.8,42.0,29.71,SSE,152,0.0,2.0,58,0.00,,,0.00,weatherlink.com 1.10,2013-06-23 10:36:00,
2013-06-23 03:51:00,56.8,42.0,29.71,SE,139,0.0,2.0,59,0.00,,,0.00,weatherlink.com 1.10,2013-06-23 10:51:00,
2013-06-23 04:06:00,56.4,42.0,29.70,SE,135,0.0,3.0,60,0.00,,,0.00,weatherlink.com 1.10,2013-06-23 11:06:00,
2013-06-23 04:21:00,56.0,43.0,29.70,ESE,113,0.0,1.0,62,0.00,,,0.00,weatherlink.com 1.10,2013-06-23 11:21:00,
2013-06-23 04:36:00,55.9,44.0,29.70,ESE,115,1.0,1.0,65,0.00,,,0.00,weatherlink.com 1.10,2013-06-23 11:36:00,
2013-06-23 04:51:00,55.5,44.0,29.69,SE,136,0.0,2.0,65,0.00,,,0.00,weatherlink.com 1.10,2013-06-23 11:51:00,
2013-06-23 05:06:00,55.7,43.0,29.69,SE,144,3.0,5.0,63,0.00,,,0.00,weatherlink.com 1.10,2013-06-23 12:06:00,
2013-06-23 05:21:00,55.3,44.0,29.68,SSE,156,0.0,2.0,67,0.00,,,0.00,weatherlink.com 1.10,2013-06-23 12:21:00,
2013-06-23 05:36:00,55.0,45.0,29.68,SE,145,0.0,1.0,68,0.00,,,0.00,weatherlink.com 1.10,2013-06-23 12:36:00,
2013-06-23 05:51:00,55.0,44.0,29.68,South,170,0.0,3.0,67,0.00,,,0.00,weatherlink.com 1.10,2013-06-23 12:51:00,
2013-06-23 06:06:00,55.0,44.0,29.68,South,170,0.0,0.0,67,0.00,,,0.00,weatherlink.com 1.10,2013-06-23 13:06:00,
2013-06-23 06:21:00,54.8,45.0,29.67,South,170,0.0,1.0,69,0.00,,,0.00,weatherlink.com 1.10,2013-06-23 13:21:00,
2013-06-23 06:36:00,55.2,45.0,29.67,South,170,0.0,1.0,69,0.00,,,0.00,weatherlink.com 1.10,2013-06-23 13:36:00,
2013-06-23 06:51:00,55.6,45.0,29.67,South,170,0.0,0.0,68,0.00,,,0.00,weatherlink.com 1.10,2013-06-23 13:51:00,
2013-06-23 07:06:00,55.8,46.0,29.66,South,170,0.0,0.0,70,0.00,,,0.00,weatherlink.com 1.10,2013-06-23 14:06:00,
2013-06-23 07:21:00,56.0,45.0,29.66,SSE,158,0.0,3.0,66,0.00,,,0.00,weatherlink.com 1.10,2013-06-23 14:21:00,
2013-06-23 07:36:00,56.5,46.0,29.66,WSW,257,0.0,1.0,67,0.00,,,0.00,weatherlink.com 1.10,2013-06-23 14:36:00,
2013-06-23 07:51:00,57.1,45.0,29.65,WSW,257,0.0,1.0,65,0.00,,,0.00,weatherlink.com 1.10,2013-06-23 14:51:00,
2013-06-23 08:06:00,57.0,46.0,29.65,West,260,0.0,1.0,66,0.00,,,0.00,weatherlink.com 1.10,2013-06-23 15:06:00,
2013-06-23 08:21:00,57.8,45.0,29.65,SSW,200,2.0,3.0,62,0.00,,,0.00,weatherlink.com 1.10,2013-06-23 15:21:00,
2013-06-23 08:36:00,58.6,45.0,29.65,SSW,205,2.0,7.0,60,0.00,,,0.00,weatherlink.com 1.10,2013-06-23 15:36:00,
2013-06-23 08:51:00,59.2,46.0,29.64,SSE,163,0.0,6.0,61,0.00,,,0.00,weatherlink.com 1.10,2013-06-23 15:51:00,
2013-06-23 09:06:00,59.2,46.0,29.64,East,101,0.0,4.0,62,0.00,,,0.00,weatherlink.com 1.10,2013-06-23 16:06:00,
2013-06-23 09:21:00,59.4,46.0,29.64,SE,145,2.0,5.0,61,0.00,,,0.00,weatherlink.com 1.10,2013-06-23 16:21:00,
2013-06-23 09:36:00,59.5,46.0,29.64,South,188,1.0,8.0,62,0.00,,,0.00,weatherlink.com 1.10,2013-06-23 16:36:00,
2013-06-23 09:51:00,59.6,46.0,29.64,SSW,208,2.0,9.0,62,0.00,,,0.00,weatherlink.com 1.10,2013-06-23 16:51:00,
2013-06-23 10:07:00,58.5,46.0,29.64,South,184,3.0,9.0,64,0.00,,,0.00,weatherlink.com 1.10,2013-06-23 17:07:00,
2013-06-23 10:22:00,58.4,47.0,29.63,SSW,212,5.0,7.0,65,0.00,,,0.00,weatherlink.com 1.10,2013-06-23 17:22:00,
2013-06-23 10:37:00,59.1,47.0,29.63,SE,127,2.0,6.0,65,0.00,,,0.00,weatherlink.com 1.10,2013-06-23 17:37:00,
2013-06-23 10:52:00,58.4,47.0,29.63,ESE,119,4.0,9.0,66,0.00,,,0.00,weatherlink.com 1.10,2013-06-23 17:52:00,
2013-06-23 11:07:00,56.9,48.0,29.63,SSE,158,3.0,8.0,71,0.00,,,0.00,weatherlink.com 1.10,2013-06-23 18:07:00,
2013-06-23 11:22:00,56.8,49.0,29.62,WSW,251,1.0,4.0,76,0.00,,,0.00,weatherlink.com 1.10,2013-06-23 18:22:00,
2013-06-23 11:37:00,57.0,49.0,29.61,WSW,239,1.0,4.0,74,0.00,,,0.00,weatherlink.com 1.10,2013-06-23 18:37:00,
2013-06-23 11:52:00,57.9,49.0,29.61,WSW,255,1.0,4.0,73,0.00,,,0.00,weatherlink.com 1.10,2013-06-23 18:52:00,
2013-06-23 12:07:00,59.0,49.0,29.60,SSE,163,3.0,5.0,70,0.00,,,0.00,weatherlink.com 1.10,2013-06-23 19:07:00,
2013-06-23 12:22:00,60.4,50.0,29.60,SSE,156,3.0,9.0,68,0.00,,,0.00,weatherlink.com 1.10,2013-06-23 19:22:00,
2013-06-23 12:37:00,60.5,50.0,29.60,South,174,5.0,7.0,68,0.00,,,0.00,weatherlink.com 1.10,2013-06-23 19:37:00,
2013-06-23 12:52:00,60.5,49.0,29.59,South,189,1.0,6.0,67,0.00,,,0.00,weatherlink.com 1.10,2013-06-23 19:52:00,
2013-06-23 13:07:00,60.5,51.0,29.59,WSW,237,4.0,7.0,70,0.00,,,0.00,weatherlink.com 1.10,2013-06-23 20:07:00,
2013-06-23 13:22:00,60.9,50.0,29.58,SW,214,0.0,7.0,67,0.00,,,0.00,weatherlink.com 1.10,2013-06-23 20:22:00,
2013-06-23 13:37:00,60.5,49.0,29.57,West,273,2.0,4.0,65,0.00,,,0.00,weatherlink.com 1.10,2013-06-23 20:37:00,
2013-06-23 13:52:00,60.8,49.0,29.57,WNW,293,1.0,4.0,65,0.00,,,0.00,weatherlink.com 1.10,2013-06-23 20:52:00,
2013-06-23 14:07:00,60.4,49.0,29.57,NW,304,0.0,4.0,67,0.00,,,0.00,weatherlink.com 1.10,2013-06-23 21:07:00,
2013-06-23 14:22:00,59.3,49.0,29.57,WNW,290,0.0,3.0,68,0.01,,,0.01,weatherlink.com 1.10,2013-06-23 21:22:00,
2013-06-23 14:37:00,58.0,52.0,29.58,SSE,155,0.0,1.0,80,0.02,,,0.02,weatherlink.com 1.10,2013-06-23 21:37:00,
2013-06-23 14:52:00,57.1,53.0,29.57,SSE,155,0.0,0.0,87,0.03,,,0.03,weatherlink.com 1.10,2013-06-23 21:52:00,
2013-06-23 15:07:00,57.2,52.0,29.57,South,170,1.0,4.0,83,0.03,,,0.03,weatherlink.com 1.10,2013-06-23 22:07:00,
2013-06-23 15:22:00,56.5,52.0,29.57,SSE,158,3.0,5.0,84,0.04,,,0.05,weatherlink.com 1.10,2013-06-23 22:22:00,
2013-06-23 15:37:00,56.3,53.0,29.57,SSE,153,0.0,0.0,87,0.05,,,0.07,weatherlink.com 1.10,2013-06-23 22:37:00,
2013-06-23 15:52:00,56.0,52.0,29.56,West,267,0.0,0.0,87,0.05,,,0.08,weatherlink.com 1.10,2013-06-23 22:52:00,
2013-06-23 16:07:00,56.9,53.0,29.55,NW,321,0.0,2.0,87,0.05,,,0.08,weatherlink.com 1.10,2013-06-23 23:07:00,
2013-06-23 16:22:00,57.5,52.0,29.55,ESE,120,0.0,2.0,83,0.03,,,0.08,weatherlink.com 1.10,2013-06-23 23:22:00,
2013-06-23 16:37:00,57.9,54.0,29.55,West,269,0.0,0.0,85,0.02,,,0.09,weatherlink.com 1.10,2013-06-23 23:37:00,
2013-06-23 16:52:00,57.3,53.0,29.55,West,278,0.0,0.0,86,0.01,,,0.09,weatherlink.com 1.10,2013-06-23 23:52:00,
2013-06-23 17:07:00,56.8,52.0,29.55,WNW,301,0.0,0.0,85,0.01,,,0.09,weatherlink.com 1.10,2013-06-24 00:07:00,
2013-06-23 17:22:00,55.9,53.0,29.55,SSW,208,1.0,4.0,90,0.07,,,0.15,weatherlink.com 1.10,2013-06-24 00:22:00,
2013-06-23 17:37:00,55.3,53.0,29.54,SSE,152,0.0,2.0,92,0.11,,,0.20,weatherlink.com 1.10,2013-06-24 00:37:00,
2013-06-23 17:52:00,55.0,53.0,29.54,SSE,153,0.0,1.0,92,0.13,,,0.22,weatherlink.com 1.10,2013-06-24 00:52:00,
2013-06-23 18:07:00,54.8,52.0,29.54,SSE,148,0.0,0.0,91,0.15,,,0.24,weatherlink.com 1.10,2013-06-24 01:07:00,
2013-06-23 18:22:00,55.0,52.0,29.54,South,173,0.0,0.0,90,0.08,,,0.24,weatherlink.com 1.10,2013-06-24 01:22:00,
2013-06-23 18:37:00,55.1,53.0,29.55,SSE,167,0.0,2.0,91,0.04,,,0.24,weatherlink.com 1.10,2013-06-24 01:37:00,
2013-06-23 18:52:00,55.0,52.0,29.54,West,262,0.0,1.0,90,0.02,,,0.24,weatherlink.com 1.10,2013-06-24 01:52:00,
2013-06-23 19:07:00,55.0,53.0,29.54,WNW,293,0.0,2.0,93,0.00,,,0.24,weatherlink.com 1.10,2013-06-24 02:07:00,
2013-06-23 19:22:00,55.1,53.0,29.54,WNW,292,0.0,0.0,93,0.00,,,0.24,weatherlink.com 1.10,2013-06-24 02:22:00,
2013-06-23 19:37:00,55.0,53.0,29.54,WNW,290,0.0,0.0,92,0.00,,,0.24,weatherlink.com 1.10,2013-06-24 02:37:00,
2013-06-23 19:52:00,54.8,53.0,29.55,WNW,290,0.0,0.0,93,0.00,,,0.24,weatherlink.com 1.10,2013-06-24 02:52:00,
2013-06-23 20:07:00,54.7,53.0,29.55,WNW,290,0.0,0.0,93,0.00,,,0.24,weatherlink.com 1.10,2013-06-24 03:07:00,
2013-06-23 20:22:00,54.5,53.0,29.54,WNW,290,0.0,0.0,93,0.00,,,0.24,weatherlink.com 1.10,2013-06-24 03:22:00,
2013-06-23 20:37:00,54.2,52.0,29.54,SSE,155,0.0,2.0,92,0.00,,,0.24,weatherlink.com 1.10,2013-06-24 03:37:00,
2013-06-23 20:52:00,53.8,52.0,29.54,SSE,157,0.0,0.0,93,0.00,,,0.24,weatherlink.com 1.10,2013-06-24 03:52:00,
2013-06-23 21:07:00,53.3,51.0,29.53,SSE,156,0.0,0.0,93,0.00,,,0.24,weatherlink.com 1.10,2013-06-24 04:07:00,
2013-06-23 21:22:00,52.5,51.0,29.54,SSE,152,0.0,0.0,94,0.00,,,0.24,weatherlink.com 1.10,2013-06-24 04:22:00,
2013-06-23 21:37:00,51.8,50.0,29.55,SE,132,0.0,1.0,94,0.00,,,0.24,weatherlink.com 1.10,2013-06-24 04:37:00,
2013-06-23 21:53:00,51.3,50.0,29.55,South,184,2.0,3.0,94,0.00,,,0.24,weatherlink.com 1.10,2013-06-24 04:53:00,
2013-06-23 22:08:00,51.6,50.0,29.55,SW,226,0.0,2.0,95,0.00,,,0.24,weatherlink.com 1.10,2013-06-24 05:08:00,
2013-06-23 22:23:00,52.1,51.0,29.56,SE,145,2.0,2.0,96,0.00,,,0.24,weatherlink.com 1.10,2013-06-24 05:23:00,
2013-06-23 22:53:00,51.6,50.0,29.56,ESE,113,0.0,1.0,95,0.00,,,0.24,weatherlink.com 1.10,2013-06-24 05:53:00,
2013-06-23 23:23:00,51.6,51.0,29.55,ESE,103,0.0,1.0,96,0.00,,,0.24,weatherlink.com 1.10,2013-06-24 06:23:00,
2013-06-23 23:38:00,51.4,50.0,29.55,ESE,115,0.0,0.0,95,0.00,,,0.24,weatherlink.com 1.10,2013-06-24 06:38:00,